This is the latest recevied weather packets stored in our database for station/object OM2RC-6. If no packets are shown the sender has not sent any weather packets the latest 10 day(s).
| Time | Temp. | Humidity | Pressure | Rain* | Wind** | Luminosity | Snow |
|---|---|---|---|---|---|---|---|
| 1778245054 | 21.67° C | 51% | 1017.7 hPa | - | - | - | - |
| 1778244753 | 20° C | 54% | 1017.8 hPa | - | - | - | - |
| 1778244452 | 19.44° C | 55% | 1017.8 hPa | - | - | - | - |
| 1778244151 | 18.89° C | 61% | 1017.9 hPa | - | - | - | - |
| 1778243851 | 18.89° C | 59% | 1017.9 hPa | - | - | - | - |
| 1778243550 | 19.44° C | 56% | 1017.9 hPa | - | - | - | - |
| 1778243248 | 21.11° C | 51% | 1017.7 hPa | - | - | - | - |
| 1778242946 | 21.11° C | 54% | 1017.7 hPa | - | - | - | - |
| 1778242645 | 20.56° C | 54% | 1017.7 hPa | - | - | - | - |
| 1778242344 | 21.11° C | 53% | 1017.6 hPa | - | - | - | - |
| 1778242043 | 22.22° C | 52% | 1017.8 hPa | - | - | - | - |
| 1778241439 | 20.56° C | 57% | 1017.9 hPa | - | - | - | - |
| 1778241138 | 22.22° C | 50% | 1017.8 hPa | - | - | - | - |
| 1778240836 | 20.56° C | 56% | 1017.9 hPa | - | - | - | - |
| 1778240532 | 19.44° C | 60% | 1017.9 hPa | - | - | - | - |
| 1778240231 | 20° C | 59% | 1017.8 hPa | - | - | - | - |
| 1778239930 | 18.33° C | 64% | 1017.8 hPa | - | - | - | - |
| 1778239631 | 18.89° C | 61% | 1017.9 hPa | - | - | - | - |
| 1778239321 | 19.44° C | 59% | 1017.8 hPa | - | - | - | - |
| 1778239018 | 20° C | 59% | 1017.9 hPa | - | - | - | - |
| 1778238717 | 19.44° C | 62% | 1018 hPa | - | - | - | - |
| 1778238412 | 18.89° C | 65% | 1018.1 hPa | - | - | - | - |
| 1778238111 | 18.89° C | 64% | 1018.1 hPa | - | - | - | - |
| 1778237810 | 17.78° C | 68% | 1018.2 hPa | - | - | - | - |
| 1778237509 | 18.33° C | 67% | 1018.2 hPa | - | - | - | - |
* Rain since midnight (hover to see other rain measurements)
** Current wind speed in m/s (hover to see current wind gust speed)